createdAt,value
2023-04-30T00:00:40.923Z,22.52
2023-04-30T00:03:09.084Z,22.63
2023-04-30T00:05:38.763Z,20.45
2023-04-30T00:08:07.351Z,25.10
2023-04-30T00:10:35.510Z,27.42
2023-04-30T00:13:03.671Z,22.55
2023-04-30T00:15:31.837Z,24.20
2023-04-30T00:17:59.983Z,24.25
2023-04-30T00:20:28.129Z,24.05
2023-04-30T00:22:57.645Z,21.33
2023-04-30T00:25:25.833Z,25.67
2023-04-30T00:27:54.274Z,22.88
2023-04-30T00:30:22.644Z,21.25
2023-04-30T00:32:51.245Z,26.67
2023-04-30T00:35:19.443Z,20.75
2023-04-30T00:37:48.000Z,28.45
2023-04-30T00:40:17.706Z,23.48
2023-04-30T00:42:45.854Z,23.27
2023-04-30T00:45:14.010Z,22.55
2023-04-30T00:47:42.567Z,24.05
2023-04-30T00:50:11.207Z,23.48
2023-04-30T00:52:40.039Z,25.52
2023-04-30T00:55:09.089Z,26.27
2023-04-30T00:57:40.728Z,24.70
2023-04-30T01:00:11.301Z,23.55
2023-04-30T01:02:39.891Z,29.48
2023-04-30T01:05:09.131Z,22.48
2023-04-30T01:07:38.935Z,22.55
2023-04-30T01:10:08.499Z,21.98
2023-04-30T01:12:44.711Z,19.85
2023-04-30T01:15:23.613Z,24.42
2023-04-30T01:17:57.960Z,20.73
2023-04-30T01:20:29.233Z,22.33
2023-04-30T01:23:20.243Z,21.10
2023-04-30T01:26:11.077Z,29.23
2023-04-30T01:28:43.741Z,24.90
2023-04-30T01:31:16.585Z,23.15
2023-04-30T01:33:44.888Z,23.30
2023-04-30T01:36:39.299Z,22.90
2023-04-30T01:39:17.300Z,23.92
2023-04-30T01:41:55.406Z,28.20
2023-04-30T01:44:42.017Z,24.15
2023-04-30T01:47:19.623Z,23.75
2023-04-30T01:49:57.027Z,22.63
2023-04-30T01:52:32.655Z,26.30
2023-04-30T01:55:06.720Z,27.83
2023-04-30T01:57:39.428Z,22.00
2023-04-30T02:00:12.088Z,23.80
2023-04-30T02:02:43.198Z,22.80
2023-04-30T02:05:11.464Z,23.90
2023-04-30T02:07:42.008Z,31.60
2023-04-30T02:10:11.895Z,21.92
2023-04-30T02:12:40.511Z,24.08
2023-04-30T02:15:11.586Z,24.00
2023-04-30T02:30:50.725Z,25.87
2023-04-30T02:33:20.293Z,26.88
2023-04-30T02:35:48.451Z,26.98
2023-04-30T02:38:16.626Z,27.63
2023-04-30T02:40:44.800Z,27.33
2023-04-30T02:43:12.993Z,27.70
2023-04-30T02:45:41.422Z,30.42
2023-04-30T02:48:10.012Z,33.00
2023-04-30T02:50:39.603Z,60.83
2023-04-30T02:53:07.810Z,74.57
2023-04-30T02:55:36.068Z,89.93
2023-04-30T02:58:04.888Z,148.40
2023-04-30T03:00:33.382Z,243.15
2023-04-30T03:03:02.166Z,226.35
2023-04-30T03:05:31.020Z,231.05
2023-04-30T03:08:00.925Z,233.88
2023-04-30T03:10:29.126Z,214.98
2023-04-30T03:12:57.915Z,235.25
2023-04-30T03:15:26.135Z,280.38
2023-04-30T03:17:54.709Z,213.43
2023-04-30T03:20:23.010Z,118.22
2023-04-30T03:22:51.735Z,202.45
2023-04-30T03:25:21.359Z,192.88
2023-04-30T03:27:49.832Z,164.00
2023-04-30T03:30:39.964Z,224.63
2023-04-30T03:33:08.425Z,122.55
2023-04-30T03:35:36.681Z,138.30
2023-04-30T03:38:04.860Z,167.50
2023-04-30T03:40:34.477Z,191.20
2023-04-30T03:43:02.673Z,236.27
2023-04-30T03:45:31.254Z,182.63
2023-04-30T03:47:59.457Z,182.93
2023-04-30T03:50:27.680Z,140.48
2023-04-30T03:52:56.161Z,176.32
2023-04-30T03:55:24.495Z,168.95
2023-04-30T03:57:54.488Z,152.77
2023-04-30T04:00:23.475Z,103.80
2023-04-30T04:02:55.448Z,121.82
2023-04-30T04:05:23.757Z,132.38
2023-04-30T04:07:52.408Z,117.68
2023-04-30T04:10:20.720Z,81.60
2023-04-30T04:12:48.927Z,85.30
2023-04-30T04:15:18.492Z,126.70
2023-04-30T04:17:47.011Z,234.85
2023-04-30T04:20:15.352Z,153.55
2023-04-30T04:22:44.333Z,104.85
2023-04-30T04:25:13.979Z,156.13
2023-04-30T04:27:43.984Z,150.40
2023-04-30T04:30:13.792Z,142.35
2023-04-30T04:32:50.424Z,197.50
2023-04-30T04:35:19.452Z,134.25
2023-04-30T04:37:47.833Z,128.60
2023-04-30T04:40:16.049Z,212.95
2023-04-30T04:42:44.870Z,120.70
2023-04-30T04:45:16.210Z,97.13
2023-04-30T04:47:45.992Z,117.40
2023-04-30T04:50:15.539Z,199.73
2023-04-30T04:52:43.835Z,206.90
2023-04-30T04:55:12.601Z,154.57
2023-04-30T04:57:42.013Z,66.00
2023-04-30T05:00:12.102Z,162.23
2023-04-30T05:02:40.671Z,173.70
2023-04-30T05:05:10.989Z,194.55
2023-04-30T05:07:39.720Z,158.57
2023-04-30T05:10:09.445Z,230.13
2023-04-30T05:12:37.673Z,223.00
2023-04-30T05:15:06.608Z,133.90
2023-04-30T05:17:34.916Z,222.93
2023-04-30T05:20:03.277Z,191.52
2023-04-30T05:22:33.280Z,146.27
2023-04-30T05:25:01.458Z,93.50
2023-04-30T05:27:29.786Z,28.52
2023-04-30T05:29:57.963Z,38.58
2023-04-30T05:32:26.246Z,64.43
2023-04-30T05:34:54.498Z,41.05
2023-04-30T05:37:22.838Z,38.45
2023-04-30T05:39:53.925Z,27.65
2023-04-30T05:42:22.460Z,20.80
2023-04-30T05:44:50.760Z,24.60
2023-04-30T05:47:19.028Z,24.85
2023-04-30T05:49:47.132Z,25.85
2023-04-30T05:52:17.536Z,22.33
2023-04-30T05:54:46.853Z,22.17
2023-04-30T05:57:18.256Z,17.17
2023-04-30T05:59:46.402Z,17.90
2023-04-30T06:02:15.034Z,16.10
2023-04-30T06:04:43.518Z,16.00
2023-04-30T06:07:14.489Z,14.85
2023-04-30T06:09:45.187Z,14.82
2023-04-30T06:12:13.666Z,13.88
2023-04-30T06:14:45.430Z,13.60
2023-04-30T06:17:14.588Z,12.10
2023-04-30T06:19:42.785Z,13.13
2023-04-30T06:22:10.949Z,14.75
2023-04-30T06:24:39.253Z,13.55
2023-04-30T06:27:07.402Z,14.27
2023-04-30T06:29:35.538Z,13.52
2023-04-30T06:32:07.738Z,13.20
2023-04-30T06:34:37.039Z,13.80
2023-04-30T06:37:05.878Z,12.63
2023-04-30T06:39:34.218Z,12.35
2023-04-30T06:42:02.661Z,12.93
2023-04-30T06:44:30.815Z,11.90
2023-04-30T06:46:59.902Z,12.75
2023-04-30T06:49:29.436Z,12.18
2023-04-30T06:51:58.558Z,12.13
2023-04-30T06:54:27.713Z,13.30
2023-04-30T06:56:56.220Z,14.00
2023-04-30T06:59:24.432Z,14.38
2023-04-30T07:01:53.871Z,13.52
2023-04-30T07:04:24.537Z,15.27
2023-04-30T07:06:54.117Z,13.80
2023-04-30T07:09:22.250Z,15.02
2023-04-30T07:11:51.258Z,12.77
2023-04-30T07:14:19.436Z,12.27
2023-04-30T07:16:47.902Z,11.65
2023-04-30T07:19:16.049Z,11.15
2023-04-30T07:21:44.551Z,11.90
2023-04-30T07:24:13.982Z,12.20
2023-04-30T07:26:42.534Z,11.98
2023-04-30T07:29:33.130Z,10.45
2023-04-30T07:32:01.461Z,10.93
2023-04-30T07:34:29.683Z,10.60
2023-04-30T07:36:58.210Z,10.20
2023-04-30T07:39:27.713Z,9.43
2023-04-30T07:41:56.374Z,8.73
2023-04-30T07:44:24.794Z,9.38
2023-04-30T07:46:53.825Z,11.02
2023-04-30T07:49:22.060Z,8.05
2023-04-30T07:51:51.130Z,6.97
2023-04-30T07:54:19.332Z,7.15
2023-04-30T07:56:50.001Z,7.15
2023-04-30T07:59:18.406Z,6.72
2023-04-30T08:01:47.236Z,6.35
2023-04-30T08:04:15.616Z,6.97
2023-04-30T08:06:43.949Z,5.68
2023-04-30T08:09:12.055Z,5.43
2023-04-30T08:11:40.707Z,7.65
2023-04-30T08:14:10.150Z,5.25
2023-04-30T08:16:38.458Z,4.95
2023-04-30T08:19:06.730Z,3.92
2023-04-30T08:21:35.125Z,4.57
2023-04-30T08:24:03.478Z,3.22
2023-04-30T08:26:31.684Z,4.38
2023-04-30T08:28:59.833Z,3.80
2023-04-30T08:31:29.418Z,3.42
2023-04-30T08:33:57.581Z,3.30
2023-04-30T08:36:25.828Z,2.78
2023-04-30T08:38:53.948Z,3.92
2023-04-30T08:41:26.889Z,2.60
2023-04-30T08:43:55.853Z,3.47
2023-04-30T08:46:25.070Z,2.65
2023-04-30T08:48:54.725Z,3.88
2023-04-30T08:51:23.789Z,4.88
2023-04-30T08:53:56.038Z,3.63
2023-04-30T08:56:25.559Z,2.72
2023-04-30T08:58:53.866Z,2.75
2023-04-30T09:01:22.683Z,2.53
2023-04-30T09:03:50.930Z,2.88
2023-04-30T09:06:21.024Z,3.65
2023-04-30T09:08:50.280Z,4.97
2023-04-30T09:11:25.388Z,2.88
2023-04-30T09:13:57.313Z,4.25
2023-04-30T09:16:26.916Z,2.67
2023-04-30T09:18:56.399Z,4.97
2023-04-30T09:21:36.603Z,10.50
2023-04-30T09:24:06.440Z,3.58
2023-04-30T09:26:36.250Z,5.22
2023-04-30T09:29:08.644Z,2.83
2023-04-30T09:31:38.737Z,2.38
2023-04-30T09:34:07.476Z,2.83
2023-04-30T09:36:37.161Z,5.05
2023-04-30T09:39:14.207Z,0.95
2023-04-30T09:41:43.855Z,1.08
2023-04-30T09:44:30.209Z,2.22
2023-04-30T09:46:59.359Z,2.25
2023-04-30T09:49:28.346Z,1.45
2023-04-30T09:51:58.816Z,1.27
2023-04-30T09:54:28.816Z,1.35
2023-04-30T09:56:59.001Z,0.68
2023-04-30T09:59:31.748Z,0.63
2023-04-30T10:02:02.123Z,0.80
2023-04-30T10:04:33.286Z,0.88
2023-04-30T10:07:05.548Z,0.80
2023-04-30T10:09:41.965Z,0.82
2023-04-30T10:12:16.363Z,1.75
2023-04-30T10:14:50.199Z,0.60
2023-04-30T10:17:18.977Z,0.55
2023-04-30T10:19:49.798Z,0.50
2023-04-30T10:22:20.502Z,1.98
2023-04-30T10:24:50.276Z,0.60
2023-04-30T10:27:19.801Z,0.60
2023-04-30T10:29:48.660Z,1.60
2023-04-30T10:32:17.897Z,0.40
2023-04-30T10:34:54.258Z,0.52
2023-04-30T10:37:32.306Z,0.57
2023-04-30T10:40:02.304Z,1.67
2023-04-30T10:42:30.596Z,5.20
2023-04-30T10:44:58.975Z,0.75
2023-04-30T10:47:30.922Z,0.75
2023-04-30T10:50:04.283Z,0.50
2023-04-30T10:52:33.757Z,0.43
2023-04-30T10:55:06.166Z,0.30
2023-04-30T10:57:42.530Z,0.50
2023-04-30T11:00:20.846Z,1.45
2023-04-30T11:02:49.822Z,0.40
2023-04-30T11:05:19.884Z,0.40
2023-04-30T11:07:50.780Z,0.55
2023-04-30T11:10:22.732Z,0.50
2023-04-30T11:12:51.848Z,0.70
2023-04-30T11:15:22.717Z,1.05
2023-04-30T11:17:51.552Z,0.50
2023-04-30T11:20:22.646Z,0.40
2023-04-30T11:23:09.942Z,1.02
2023-04-30T11:25:42.361Z,0.65
2023-04-30T11:28:16.118Z,0.82
2023-04-30T11:30:52.354Z,0.50
2023-04-30T11:33:21.133Z,0.50
2023-04-30T11:35:52.038Z,1.05
2023-04-30T11:38:24.117Z,0.60
2023-04-30T11:40:54.090Z,1.60
2023-04-30T11:43:23.827Z,0.65
2023-04-30T11:46:11.883Z,1.08
2023-04-30T11:48:42.131Z,0.68
2023-04-30T11:51:17.423Z,0.47
2023-04-30T11:53:49.636Z,1.95
2023-04-30T11:56:20.530Z,0.73
2023-04-30T11:58:49.334Z,0.40
2023-04-30T12:01:18.332Z,0.68
2023-04-30T12:03:48.708Z,0.75
2023-04-30T12:06:23.625Z,1.40
2023-04-30T12:08:55.651Z,0.38
2023-04-30T12:11:25.436Z,0.50
2023-04-30T12:13:55.255Z,1.13
2023-04-30T12:16:25.530Z,0.40
2023-04-30T12:18:53.759Z,0.28
2023-04-30T12:21:22.954Z,0.30
2023-04-30T12:23:51.285Z,0.40
2023-04-30T12:26:21.027Z,0.57
2023-04-30T12:28:49.851Z,0.50
2023-04-30T12:31:19.604Z,0.85
2023-04-30T12:33:56.380Z,0.30
2023-04-30T12:36:31.696Z,0.50
2023-04-30T12:39:10.184Z,0.82
2023-04-30T12:41:42.450Z,0.73
2023-04-30T12:44:21.542Z,0.63
2023-04-30T12:46:51.264Z,0.70
2023-04-30T12:49:27.360Z,1.25
2023-04-30T12:52:01.174Z,0.88
2023-04-30T12:54:30.545Z,0.45
2023-04-30T12:57:05.123Z,0.50
2023-04-30T12:59:34.509Z,0.50
2023-04-30T13:02:13.900Z,0.52
2023-04-30T13:04:43.237Z,1.05
2023-04-30T13:07:11.846Z,1.40
2023-04-30T13:09:40.095Z,1.52
2023-04-30T13:12:09.750Z,1.38
2023-04-30T13:14:37.920Z,1.40
2023-04-30T13:17:07.275Z,1.30
2023-04-30T13:19:35.748Z,1.17
2023-04-30T13:22:03.917Z,2.70
2023-04-30T13:24:32.126Z,2.83
2023-04-30T13:27:00.293Z,0.70
2023-04-30T13:29:29.835Z,0.93
2023-04-30T13:31:58.196Z,1.10
2023-04-30T13:34:26.325Z,2.95
2023-04-30T13:36:55.058Z,1.00
2023-04-30T13:39:23.310Z,1.23
2023-04-30T13:41:51.476Z,0.88
2023-04-30T13:44:19.639Z,0.70
2023-04-30T13:46:50.152Z,0.60
2023-04-30T13:49:18.410Z,0.73
2023-04-30T13:51:46.823Z,1.55
2023-04-30T13:54:15.039Z,0.40
2023-04-30T13:56:43.170Z,1.05
2023-04-30T13:59:12.249Z,1.05
2023-04-30T14:01:40.719Z,1.35
2023-04-30T14:04:10.297Z,2.50
2023-04-30T14:06:39.713Z,0.70
2023-04-30T14:09:07.973Z,2.05
2023-04-30T14:11:36.386Z,0.80
2023-04-30T14:14:04.614Z,2.33
2023-04-30T14:16:33.287Z,0.40
2023-04-30T14:19:35.784Z,1.20
2023-04-30T14:22:05.808Z,0.95
2023-04-30T14:24:34.121Z,0.50
2023-04-30T14:27:05.888Z,0.30
2023-04-30T14:29:34.074Z,0.50
2023-04-30T14:32:02.629Z,0.65
2023-04-30T14:34:31.767Z,2.50
2023-04-30T14:37:01.918Z,0.73
2023-04-30T14:39:33.878Z,0.90
2023-04-30T14:42:03.300Z,0.70
2023-04-30T14:44:32.214Z,0.93
2023-04-30T14:47:00.806Z,1.17
2023-04-30T14:49:29.266Z,3.78
2023-04-30T14:51:57.719Z,0.60
2023-04-30T14:54:25.966Z,1.50
2023-04-30T14:56:55.549Z,0.50
2023-04-30T14:59:23.975Z,1.20
2023-04-30T15:01:52.181Z,0.80
2023-04-30T15:04:20.480Z,0.80
2023-04-30T15:06:48.968Z,1.15
2023-04-30T15:09:18.404Z,0.85
2023-04-30T15:30:40.873Z,0.65
2023-04-30T15:33:09.090Z,1.05
2023-04-30T15:35:37.328Z,0.70
2023-04-30T15:38:05.624Z,0.60
2023-04-30T15:46:55.126Z,1.48
2023-04-30T15:49:23.850Z,0.95
2023-04-30T15:51:52.660Z,2.05
2023-04-30T15:54:20.989Z,1.73
2023-04-30T15:56:49.265Z,1.10
2023-04-30T16:08:56.192Z,0.82
2023-04-30T16:11:25.181Z,2.35
2023-04-30T16:13:53.608Z,1.08
2023-04-30T16:16:21.836Z,1.27
2023-04-30T16:18:50.892Z,2.25
2023-04-30T16:21:19.348Z,1.08
2023-04-30T16:23:47.694Z,1.10
2023-04-30T16:26:18.107Z,1.23
2023-04-30T16:28:46.886Z,0.85
2023-04-30T16:31:15.682Z,1.25
2023-04-30T16:33:44.126Z,0.80
2023-04-30T16:36:12.317Z,1.63
2023-04-30T16:38:40.513Z,0.85
2023-04-30T16:41:08.959Z,0.63
2023-04-30T16:43:38.501Z,1.30
2023-04-30T16:46:06.764Z,0.75
2023-04-30T16:48:35.424Z,0.60
2023-04-30T16:51:03.701Z,0.65
2023-04-30T16:53:31.977Z,2.20
2023-04-30T16:56:00.557Z,1.25
2023-04-30T16:58:28.769Z,1.17
2023-04-30T17:00:58.391Z,3.40
2023-04-30T17:03:26.834Z,0.68
2023-04-30T17:05:55.165Z,1.05
2023-04-30T17:08:23.568Z,1.40
2023-04-30T17:10:51.974Z,0.70
2023-04-30T17:13:20.253Z,1.42
2023-04-30T17:15:48.706Z,0.90
2023-04-30T17:18:18.400Z,2.35
2023-04-30T17:20:47.899Z,2.92
2023-04-30T17:23:16.163Z,1.58
2023-04-30T17:25:44.424Z,1.25
2023-04-30T17:28:12.613Z,2.40
2023-04-30T17:30:42.223Z,1.85
2023-04-30T17:33:10.533Z,2.80
2023-04-30T17:35:40.164Z,5.68
2023-04-30T17:38:08.392Z,4.10
2023-04-30T17:40:36.723Z,6.95
2023-04-30T17:43:04.920Z,2.45
2023-04-30T17:45:33.130Z,15.90
2023-04-30T17:48:01.306Z,7.53
2023-04-30T17:50:29.642Z,12.82
2023-04-30T17:52:59.342Z,4.07
2023-04-30T17:55:27.871Z,2.17
2023-04-30T17:57:56.080Z,2.30
2023-04-30T18:00:24.357Z,3.90
2023-04-30T18:02:52.578Z,3.05
2023-04-30T18:05:21.211Z,3.22
2023-04-30T18:07:49.793Z,2.05
2023-04-30T18:10:19.996Z,4.15
2023-04-30T18:12:48.222Z,24.25
2023-04-30T18:15:16.710Z,7.00
2023-04-30T18:17:44.946Z,8.60
2023-04-30T18:20:13.402Z,8.90
2023-04-30T18:22:43.471Z,6.32
2023-04-30T18:25:13.571Z,7.60
2023-04-30T18:27:43.369Z,8.43
2023-04-30T18:30:12.854Z,5.68
2023-04-30T18:32:41.821Z,7.35
2023-04-30T18:35:11.263Z,1.70
2023-04-30T18:37:39.398Z,2.45
2023-04-30T18:40:08.875Z,1.95
2023-04-30T18:42:37.531Z,1.75
2023-04-30T18:45:09.964Z,4.97
2023-04-30T18:47:38.243Z,4.15
2023-04-30T18:50:10.435Z,2.60
2023-04-30T18:52:38.633Z,3.75
2023-04-30T18:55:07.760Z,2.00
2023-04-30T18:57:36.424Z,3.95
2023-04-30T19:00:06.915Z,2.25
2023-04-30T19:02:35.259Z,5.22
2023-04-30T19:05:03.636Z,16.30
2023-04-30T19:07:31.943Z,3.95
2023-04-30T19:10:00.553Z,4.70
2023-04-30T19:12:28.848Z,6.05
2023-04-30T19:14:57.215Z,2.15
2023-04-30T19:17:27.371Z,3.28
2023-04-30T19:19:58.183Z,6.25
2023-04-30T19:22:26.810Z,5.70
2023-04-30T19:24:55.003Z,10.15
2023-04-30T19:27:23.296Z,5.78
2023-04-30T19:29:53.137Z,5.60
2023-04-30T19:32:22.010Z,20.52
2023-04-30T19:34:52.398Z,9.88
2023-04-30T19:37:20.547Z,8.10
2023-04-30T19:39:48.911Z,8.07
2023-04-30T19:42:17.069Z,9.82
2023-04-30T19:44:45.452Z,9.45
2023-04-30T19:47:13.662Z,12.50
2023-04-30T19:49:41.955Z,7.03
2023-04-30T19:52:12.485Z,12.77
2023-04-30T19:54:42.343Z,14.35
2023-04-30T19:57:10.575Z,16.25
2023-04-30T19:59:38.797Z,11.27
2023-04-30T20:02:08.301Z,15.25
2023-04-30T20:04:37.412Z,10.52
2023-04-30T20:07:05.546Z,13.93
2023-04-30T20:09:35.015Z,10.20
2023-04-30T20:12:03.637Z,6.55
2023-04-30T20:14:32.153Z,12.10
2023-04-30T20:17:00.328Z,7.88
2023-04-30T20:19:32.133Z,8.40
2023-04-30T20:22:01.373Z,8.23
2023-04-30T20:24:29.814Z,8.73
2023-04-30T20:26:59.899Z,10.20
2023-04-30T20:29:29.395Z,5.80
2023-04-30T20:31:58.364Z,5.43
2023-04-30T20:34:26.731Z,5.63
2023-04-30T20:36:55.074Z,6.00
2023-04-30T20:39:24.288Z,3.80
2023-04-30T20:41:53.331Z,4.75
2023-04-30T20:44:22.839Z,6.68
2023-04-30T20:46:51.292Z,7.78
2023-04-30T20:49:19.537Z,3.25
2023-04-30T20:51:47.805Z,5.32
2023-04-30T20:54:15.981Z,3.03
2023-04-30T20:56:45.111Z,3.67
2023-04-30T20:59:13.364Z,4.78
2023-04-30T21:01:42.969Z,4.90
2023-04-30T21:04:11.281Z,3.33
2023-04-30T21:06:39.828Z,6.22
2023-04-30T21:09:08.006Z,4.25
2023-04-30T21:11:36.146Z,3.22
2023-04-30T21:14:04.487Z,2.63
2023-04-30T21:16:32.707Z,3.47
2023-04-30T21:19:02.302Z,3.20
2023-04-30T21:21:30.944Z,3.17
2023-04-30T21:24:01.086Z,4.05
2023-04-30T21:26:29.349Z,2.05
2023-04-30T21:28:57.462Z,3.47
2023-04-30T21:31:25.840Z,3.80
2023-04-30T21:33:54.055Z,3.72
2023-04-30T21:36:23.727Z,3.78
2023-04-30T21:38:52.046Z,2.83
2023-04-30T21:41:21.616Z,4.13
2023-04-30T21:43:49.787Z,5.70
2023-04-30T21:46:18.051Z,2.67
2023-04-30T21:48:47.145Z,2.75
2023-04-30T21:51:16.865Z,1.75
2023-04-30T21:53:46.678Z,2.53
2023-04-30T21:56:16.253Z,2.28
2023-04-30T21:58:44.412Z,2.75
2023-04-30T22:01:13.517Z,1.85
2023-04-30T22:03:43.021Z,2.95
2023-04-30T22:06:11.283Z,3.10
2023-04-30T22:08:39.430Z,2.97
2023-04-30T22:11:09.324Z,2.40
2023-04-30T22:13:59.894Z,2.28
2023-04-30T22:16:28.094Z,3.67
2023-04-30T22:18:58.817Z,3.58
2023-04-30T22:21:27.398Z,2.65
2023-04-30T22:23:55.554Z,2.22
2023-04-30T22:26:25.862Z,3.72
2023-04-30T22:28:54.016Z,2.60
2023-04-30T22:31:22.186Z,3.72
2023-04-30T22:33:50.680Z,3.10
2023-04-30T22:36:18.884Z,4.47
2023-04-30T22:38:47.098Z,2.53
2023-04-30T22:41:15.295Z,3.47
2023-04-30T22:43:47.156Z,2.63
2023-04-30T22:46:15.722Z,3.60
2023-04-30T22:48:44.476Z,5.35
2023-04-30T22:51:12.767Z,6.88
2023-04-30T22:53:40.945Z,3.58
2023-04-30T22:56:09.186Z,2.95
2023-04-30T22:58:37.294Z,8.27
2023-04-30T23:01:07.338Z,4.88
2023-04-30T23:03:35.870Z,12.10
2023-04-30T23:06:04.271Z,9.43
2023-04-30T23:08:32.505Z,12.20
2023-04-30T23:11:01.556Z,6.18
2023-04-30T23:13:29.805Z,5.50
2023-04-30T23:15:59.278Z,7.53
2023-04-30T23:18:29.136Z,5.00
2023-04-30T23:20:59.658Z,5.65
2023-04-30T23:23:28.178Z,3.28
2023-04-30T23:25:56.737Z,4.82
2023-04-30T23:28:25.403Z,4.78
2023-04-30T23:30:53.995Z,4.78
2023-04-30T23:33:22.623Z,3.85
2023-04-30T23:35:53.835Z,3.67
2023-04-30T23:38:22.390Z,4.53
2023-04-30T23:40:50.690Z,5.72
2023-04-30T23:43:19.024Z,4.05
2023-04-30T23:45:47.670Z,4.80
2023-04-30T23:48:15.824Z,4.47
2023-04-30T23:50:44.017Z,4.07
2023-04-30T23:53:13.604Z,3.95
2023-04-30T23:55:42.457Z,5.22
2023-04-30T23:58:10.636Z,4.32
